Time;durP1;ratioP1;P1;durP2;ratioP2;P2;SDS_P1;SDS_P2;PMS_P1;PMS_P2;Temp;Humidity;BMP_temperature;BMP_pressure;BME280_temperature;BME280_humidity;BME280_pressure;Samples;Min_cycle;Max_cycle;Signal;HPM_P1;HPM_P2
2024/03/30 00:00:50;;;;;;;1.27;0.80;;;13.00;88.00;;;;;;4957297;28;20110;-78
2024/03/30 00:03:17;;;;;;;1.48;0.90;;;13.00;88.00;;;;;;4972987;28;20023;-78
2024/03/30 00:05:42;;;;;;;2.28;0.95;;;13.00;88.00;;;;;;4974434;28;20163;-78
2024/03/30 00:08:08;;;;;;;1.50;0.80;;;13.00;88.00;;;;;;4973398;28;20018;-78
2024/03/30 00:10:39;;;;;;;0.90;0.70;;;13.00;88.00;;;;;;4973186;28;20031;-78
2024/03/30 00:13:10;;;;;;;1.67;0.90;;;13.00;88.00;;;;;;4972978;28;20488;-77
2024/03/30 00:15:36;;;;;;;1.27;0.70;;;13.00;88.00;;;;;;4974565;28;20026;-78
2024/03/30 00:18:02;;;;;;;1.83;0.80;;;13.00;88.00;;;;;;4973003;28;20033;-78
2024/03/30 00:20:29;;;;;;;1.88;1.00;;;13.00;88.00;;;;;;4972664;28;20014;-79
2024/03/30 00:22:54;;;;;;;1.65;0.80;;;13.00;88.00;;;;;;4974316;28;20031;-78
2024/03/30 00:25:21;;;;;;;1.40;0.70;;;13.00;88.00;;;;;;4974420;28;20034;-78
2024/03/30 00:27:46;;;;;;;1.33;0.70;;;13.00;88.00;;;;;;4973182;28;20539;-79
2024/03/30 00:30:12;;;;;;;1.10;0.77;;;13.00;88.10;;;;;;4972869;28;20102;-78
2024/03/30 00:32:38;;;;;;;0.93;0.70;;;13.00;88.10;;;;;;4973987;28;20050;-78
2024/03/30 00:35:04;;;;;;;1.63;0.70;;;13.00;88.10;;;;;;4972603;28;20045;-78
2024/03/30 00:37:33;;;;;;;1.33;0.77;;;13.00;88.10;;;;;;4974760;28;20031;-78
2024/03/30 00:39:58;;;;;;;1.23;0.90;;;12.90;88.00;;;;;;4974214;28;20113;-78
2024/03/30 00:42:25;;;;;;;1.35;0.70;;;13.00;88.00;;;;;;4974732;28;20519;-78
2024/03/30 00:44:51;;;;;;;1.20;0.70;;;12.90;88.00;;;;;;4974249;28;20022;-78
2024/03/30 00:47:18;;;;;;;1.33;0.80;;;13.00;88.00;;;;;;4974510;28;20098;-78
2024/03/30 00:49:43;;;;;;;1.15;0.63;;;13.00;88.10;;;;;;4973083;28;20026;-78
2024/03/30 00:52:09;;;;;;;1.90;0.80;;;13.00;88.00;;;;;;4974214;28;20372;-78
2024/03/30 00:54:35;;;;;;;1.92;0.82;;;12.90;88.00;;;;;;4973730;28;20109;-78
2024/03/30 00:57:00;;;;;;;1.35;0.70;;;13.00;88.10;;;;;;4973380;28;20023;-78
2024/03/30 00:59:26;;;;;;;1.70;0.90;;;13.00;88.10;;;;;;4955459;28;20035;-78
2024/03/30 01:01:51;;;;;;;0.80;0.60;;;13.00;88.00;;;;;;4973111;28;20037;-78
2024/03/30 01:04:17;;;;;;;1.83;0.95;;;13.00;88.00;;;;;;4975207;28;20019;-78
2024/03/30 01:06:43;;;;;;;0.98;0.77;;;12.90;88.00;;;;;;4976408;28;20019;-78
2024/03/30 01:09:09;;;;;;;1.17;0.70;;;13.00;88.10;;;;;;4976745;28;20034;-78
2024/03/30 01:11:36;;;;;;;1.67;0.93;;;13.00;88.10;;;;;;4977250;28;20033;-78
2024/03/30 01:14:03;;;;;;;1.10;0.90;;;13.00;88.10;;;;;;4976339;28;20038;-78
2024/03/30 01:16:29;;;;;;;1.00;0.70;;;13.00;88.10;;;;;;4974815;28;20444;-78
2024/03/30 01:18:55;;;;;;;1.08;0.80;;;13.00;88.10;;;;;;4975324;28;20027;-78
2024/03/30 01:21:21;;;;;;;2.03;0.90;;;12.90;88.00;;;;;;4976390;28;20384;-78
2024/03/30 01:23:47;;;;;;;1.75;0.95;;;13.00;88.00;;;;;;4975133;28;20484;-78
2024/03/30 01:26:13;;;;;;;1.60;0.80;;;13.00;88.00;;;;;;4975071;28;20499;-78
2024/03/30 01:28:42;;;;;;;1.83;0.90;;;13.00;88.00;;;;;;4976359;28;20395;-78
2024/03/30 01:31:10;;;;;;;1.23;0.80;;;13.00;88.10;;;;;;4976213;28;20451;-78
2024/03/30 01:33:36;;;;;;;1.15;0.77;;;13.00;88.00;;;;;;4976332;28;20406;-79
2024/03/30 01:36:02;;;;;;;2.88;0.90;;;13.00;88.10;;;;;;4975954;28;20050;-77
2024/03/30 01:38:29;;;;;;;1.52;0.80;;;13.00;88.10;;;;;;4990909;28;20495;-77
2024/03/30 01:40:55;;;;;;;1.73;0.80;;;13.00;88.10;;;;;;4975896;28;20050;-78
2024/03/30 01:43:21;;;;;;;2.20;0.70;;;13.00;88.10;;;;;;4974867;28;20034;-78
2024/03/30 01:45:47;;;;;;;1.13;0.70;;;13.00;88.10;;;;;;4975712;28;20026;-78
2024/03/30 01:48:14;;;;;;;1.92;0.77;;;13.00;88.10;;;;;;4976167;28;20771;-78
2024/03/30 01:50:42;;;;;;;1.60;0.80;;;12.90;88.10;;;;;;4975358;28;20035;-78
2024/03/30 01:53:12;;;;;;;1.10;0.70;;;13.00;88.10;;;;;;4975608;28;20399;-78
2024/03/30 01:55:39;;;;;;;0.75;0.70;;;13.00;88.10;;;;;;4976091;28;20105;-76
2024/03/30 01:58:06;;;;;;;1.10;0.80;;;13.00;88.10;;;;;;4974437;28;20031;-77
2024/03/30 02:00:32;;;;;;;1.60;0.70;;;13.00;88.10;;;;;;4974176;28;20030;-78
2024/03/30 02:02:59;;;;;;;1.27;0.73;;;13.00;88.10;;;;;;4973966;28;20027;-78
2024/03/30 02:05:26;;;;;;;1.80;0.90;;;13.00;88.10;;;;;;4975458;28;20102;-78
2024/03/30 02:07:52;;;;;;;0.98;0.75;;;13.00;88.10;;;;;;4974940;28;20484;-78
2024/03/30 02:10:19;;;;;;;1.20;0.80;;;13.00;88.10;;;;;;4973879;28;20066;-78
2024/03/30 02:12:45;;;;;;;1.17;0.80;;;13.00;88.10;;;;;;4973220;28;20039;-78
2024/03/30 02:15:10;;;;;;;1.45;0.90;;;13.00;88.10;;;;;;4975263;28;20058;-78
2024/03/30 02:17:36;;;;;;;1.35;0.80;;;13.00;88.10;;;;;;4973470;28;20073;-78
2024/03/30 02:20:02;;;;;;;1.27;0.80;;;13.00;88.10;;;;;;4973574;28;20031;-78
2024/03/30 02:22:28;;;;;;;1.15;0.80;;;13.00;88.10;;;;;;4974331;28;20047;-79
2024/03/30 02:24:53;;;;;;;1.35;0.70;;;13.00;88.10;;;;;;4975141;28;20631;-78
2024/03/30 02:27:19;;;;;;;1.25;0.85;;;13.00;88.10;;;;;;4974075;28;20373;-77
2024/03/30 02:29:49;;;;;;;1.23;0.80;;;13.00;88.10;;;;;;4975077;28;20479;-78
2024/03/30 02:32:15;;;;;;;1.15;0.70;;;13.00;88.20;;;;;;4957894;28;20023;-78
2024/03/30 02:34:41;;;;;;;1.77;0.90;;;13.00;88.10;;;;;;4976113;28;20070;-78
2024/03/30 02:37:08;;;;;;;1.30;0.88;;;12.90;88.10;;;;;;4973746;28;20403;-77
2024/03/30 02:39:33;;;;;;;1.42;0.77;;;13.00;88.10;;;;;;4974692;28;20110;-78
2024/03/30 02:41:59;;;;;;;1.52;0.90;;;13.00;88.20;;;;;;4973601;28;20113;-78
2024/03/30 02:44:25;;;;;;;1.40;0.90;;;12.90;88.10;;;;;;4974993;28;20027;-78
2024/03/30 02:46:50;;;;;;;1.48;0.90;;;13.00;88.10;;;;;;4975170;28;20034;-77
2024/03/30 02:49:16;;;;;;;1.65;0.98;;;13.00;88.20;;;;;;4974402;28;20031;-78
2024/03/30 02:51:41;;;;;;;1.58;0.88;;;13.00;88.10;;;;;;4974256;28;20090;-78
2024/03/30 02:54:07;;;;;;;1.05;0.80;;;13.00;88.20;;;;;;4973888;28;20055;-78
2024/03/30 02:56:33;;;;;;;1.25;0.90;;;13.00;88.10;;;;;;4973601;28;20033;-78
2024/03/30 02:58:59;;;;;;;1.83;0.88;;;13.00;88.20;;;;;;4974233;28;20050;-78
2024/03/30 03:01:25;;;;;;;1.45;0.90;;;12.90;88.10;;;;;;4974308;28;20027;-78
2024/03/30 03:03:52;;;;;;;1.73;0.90;;;13.00;88.20;;;;;;4974663;28;20026;-76
2024/03/30 03:06:18;;;;;;;1.92;0.95;;;13.00;88.20;;;;;;4973613;28;20031;-78
2024/03/30 03:08:44;;;;;;;2.05;0.90;;;12.90;88.10;;;;;;4973428;28;20037;-78
2024/03/30 03:11:10;;;;;;;1.25;0.90;;;13.00;88.20;;;;;;4972969;28;20031;-78
2024/03/30 03:13:36;;;;;;;2.00;1.00;;;12.90;88.10;;;;;;4974435;28;20026;-76
2024/03/30 03:16:05;;;;;;;1.50;1.00;;;13.00;88.10;;;;;;4974346;28;20105;-78
2024/03/30 03:18:31;;;;;;;1.48;0.90;;;13.00;88.10;;;;;;4973820;28;20054;-78
2024/03/30 03:20:57;;;;;;;1.00;0.80;;;13.00;88.20;;;;;;4973742;28;20073;-78
2024/03/30 03:23:25;;;;;;;1.15;0.77;;;12.90;88.20;;;;;;4974624;28;20023;-78
2024/03/30 03:25:51;;;;;;;1.23;0.95;;;13.00;88.20;;;;;;4973592;28;20069;-78
2024/03/30 03:28:17;;;;;;;1.23;0.82;;;12.90;88.10;;;;;;4972935;28;20027;-78
2024/03/30 03:30:43;;;;;;;1.48;1.00;;;13.00;88.70;;;;;;4973693;28;20033;-78
2024/03/30 03:33:08;;;;;;;1.40;0.90;;;13.00;88.20;;;;;;4973860;28;20154;-78
2024/03/30 03:35:34;;;;;;;1.15;0.90;;;13.00;88.20;;;;;;4974090;28;20061;-78
2024/03/30 03:38:00;;;;;;;1.45;0.95;;;12.90;88.10;;;;;;4974037;28;20031;-79
2024/03/30 03:40:26;;;;;;;2.00;0.95;;;12.90;88.10;;;;;;4972614;28;20037;-78
2024/03/30 03:42:51;;;;;;;1.50;0.88;;;13.00;88.20;;;;;;4972395;28;20023;-78
2024/03/30 03:45:17;;;;;;;1.45;1.00;;;13.00;88.20;;;;;;4972646;28;20151;-78
2024/03/30 03:47:42;;;;;;;1.27;0.93;;;13.00;88.20;;;;;;4974305;28;20023;-78
2024/03/30 03:50:08;;;;;;;1.75;1.02;;;13.00;88.20;;;;;;4972991;28;20039;-78
2024/03/30 03:52:34;;;;;;;1.73;1.00;;;13.00;88.20;;;;;;4973712;28;20022;-77
2024/03/30 03:54:59;;;;;;;1.90;1.00;;;13.00;88.20;;;;;;4974630;28;20035;-78
2024/03/30 03:57:25;;;;;;;1.27;0.98;;;12.90;88.20;;;;;;4974216;28;20118;-77
2024/03/30 03:59:51;;;;;;;1.20;0.90;;;13.00;88.20;;;;;;4973591;28;20074;-78
2024/03/30 04:02:16;;;;;;;1.95;1.20;;;13.00;88.20;;;;;;4973367;28;20053;-78
2024/03/30 04:04:42;;;;;;;1.80;1.02;;;12.90;88.10;;;;;;4973514;28;20023;-76
2024/03/30 04:07:07;;;;;;;1.52;1.02;;;13.00;88.20;;;;;;4973460;28;20106;-78
2024/03/30 04:09:33;;;;;;;1.95;0.95;;;13.00;88.20;;;;;;4972088;28;20029;-78
2024/03/30 04:11:59;;;;;;;1.25;1.00;;;13.00;88.20;;;;;;4972253;28;20034;-78
2024/03/30 04:14:24;;;;;;;1.92;1.13;;;12.90;88.20;;;;;;4972487;28;20507;-78
2024/03/30 04:16:50;;;;;;;1.10;0.88;;;12.90;88.20;;;;;;4973546;28;20023;-76
2024/03/30 04:19:17;;;;;;;1.88;1.10;;;12.90;88.20;;;;;;4988445;28;20023;-77
2024/03/30 04:21:50;;;;;;;1.17;0.90;;;13.00;88.30;;;;;;4973405;28;20033;-78
2024/03/30 04:24:15;;;;;;;1.40;1.00;;;12.90;88.70;;;;;;4973680;28;20026;-79
2024/03/30 04:26:41;;;;;;;2.17;1.20;;;13.00;88.20;;;;;;4973599;28;20353;-78
2024/03/30 04:29:07;;;;;;;0.93;0.80;;;13.00;88.30;;;;;;4972618;28;20027;-78
2024/03/30 04:31:33;;;;;;;1.90;1.10;;;12.90;88.20;;;;;;4973327;28;20381;-78
2024/03/30 04:33:58;;;;;;;1.15;0.90;;;12.90;88.20;;;;;;4973498;28;20428;-78
2024/03/30 04:36:24;;;;;;;1.50;1.00;;;12.90;88.20;;;;;;4973115;28;20037;-78
2024/03/30 04:38:49;;;;;;;1.15;0.90;;;12.90;88.20;;;;;;4975661;28;20027;-78
2024/03/30 04:41:15;;;;;;;1.33;0.95;;;12.90;88.20;;;;;;4975572;28;20042;-77
2024/03/30 04:43:41;;;;;;;1.58;1.00;;;12.90;88.20;;;;;;4959752;28;20065;-78
2024/03/30 04:46:06;;;;;;;1.50;0.95;;;12.90;88.20;;;;;;4975790;28;20078;-78
2024/03/30 04:48:33;;;;;;;1.92;1.00;;;13.00;88.30;;;;;;4959719;28;20571;-76
2024/03/30 04:51:02;;;;;;;1.60;1.00;;;12.90;88.20;;;;;;4975597;28;20026;-78
2024/03/30 04:53:35;;;;;;;1.60;1.00;;;12.90;88.20;;;;;;4991844;28;20023;-78
2024/03/30 04:56:04;;;;;;;1.48;1.10;;;12.90;88.20;;;;;;4977282;28;20026;-77
2024/03/30 04:58:32;;;;;;;2.25;1.10;;;12.90;88.20;;;;;;4975619;28;20118;-79
2024/03/30 05:01:03;;;;;;;1.50;1.00;;;12.90;88.20;;;;;;4975261;28;20038;-78
2024/03/30 05:03:29;;;;;;;1.50;0.98;;;13.00;88.30;;;;;;4975503;28;20028;-75
2024/03/30 05:05:55;;;;;;;1.25;1.00;;;12.90;88.20;;;;;;4976308;28;20027;-78
2024/03/30 05:08:21;;;;;;;2.17;1.10;;;12.90;88.20;;;;;;4975269;28;20030;-77
2024/03/30 05:10:46;;;;;;;2.10;1.05;;;12.90;88.20;;;;;;4975638;28;20023;-78
2024/03/30 05:13:12;;;;;;;1.40;0.98;;;13.00;88.30;;;;;;4976499;28;20432;-78
2024/03/30 05:15:42;;;;;;;1.10;1.00;;;13.00;88.30;;;;;;4976764;28;20031;-78
2024/03/30 05:18:10;;;;;;;1.30;0.90;;;12.90;88.20;;;;;;4974686;28;20034;-78
2024/03/30 05:20:49;;;;;;;1.83;1.10;;;13.00;88.20;;;;;;4975964;28;20039;-78
2024/03/30 05:23:28;;;;;;;1.75;1.00;;;12.90;88.20;;;;;;4977257;28;20081;-78
2024/03/30 05:25:58;;;;;;;1.80;1.10;;;13.00;88.30;;;;;;4976631;28;20027;-76
2024/03/30 05:28:26;;;;;;;1.85;1.00;;;13.00;88.30;;;;;;4976123;28;20053;-78
2024/03/30 05:30:53;;;;;;;1.27;1.00;;;12.90;88.20;;;;;;4975907;28;20031;-79
2024/03/30 05:33:19;;;;;;;1.85;1.05;;;12.90;88.20;;;;;;4976630;28;20030;-78
2024/03/30 05:35:50;;;;;;;1.23;1.00;;;12.90;88.20;;;;;;4976089;28;20085;-77
2024/03/30 05:38:16;;;;;;;1.83;0.90;;;13.00;88.30;;;;;;4976213;28;20039;-78
2024/03/30 05:40:43;;;;;;;1.58;1.00;;;13.00;88.30;;;;;;4975759;28;20034;-78
2024/03/30 05:43:09;;;;;;;1.20;0.90;;;12.90;88.20;;;;;;4974615;28;20031;-78
2024/03/30 05:45:36;;;;;;;1.95;0.90;;;12.90;88.20;;;;;;4974677;28;20073;-78
2024/03/30 05:48:02;;;;;;;0.98;0.80;;;12.90;88.20;;;;;;4975408;28;20042;-78
2024/03/30 05:50:29;;;;;;;1.70;1.10;;;12.90;88.20;;;;;;4990733;28;20031;-78
2024/03/30 05:52:55;;;;;;;1.52;1.00;;;13.00;88.30;;;;;;4976025;28;20035;-78
2024/03/30 05:55:21;;;;;;;1.98;0.93;;;12.90;88.20;;;;;;4974555;28;20054;-78
2024/03/30 05:57:47;;;;;;;1.50;1.10;;;13.00;88.30;;;;;;4958276;28;20066;-79
2024/03/30 06:00:14;;;;;;;1.42;1.00;;;12.90;88.20;;;;;;4974279;28;20073;-78
2024/03/30 06:02:43;;;;;;;2.42;1.13;;;13.00;88.20;;;;;;4974343;28;20027;-77
2024/03/30 06:05:09;;;;;;;1.67;1.00;;;13.00;88.20;;;;;;4974450;28;20459;-78
2024/03/30 06:07:35;;;;;;;1.55;1.00;;;13.00;88.20;;;;;;4974324;28;20065;-78
2024/03/30 06:10:02;;;;;;;1.92;1.10;;;12.90;88.20;;;;;;4975204;28;20027;-78
2024/03/30 06:12:27;;;;;;;1.33;0.90;;;12.90;88.20;;;;;;4958149;28;20038;-78
2024/03/30 06:14:53;;;;;;;1.77;1.10;;;13.00;88.20;;;;;;4974484;28;20031;-78
2024/03/30 06:17:18;;;;;;;1.70;1.13;;;13.00;88.20;;;;;;4973702;28;20027;-78
2024/03/30 06:19:44;;;;;;;1.52;1.08;;;13.00;88.20;;;;;;4975042;28;20062;-78
2024/03/30 06:22:10;;;;;;;1.45;1.10;;;13.00;88.20;;;;;;4975274;28;20035;-78
2024/03/30 06:24:38;;;;;;;1.85;1.10;;;13.00;88.20;;;;;;4974998;28;20046;-78
2024/03/30 06:27:04;;;;;;;2.13;1.08;;;13.00;88.10;;;;;;4974930;28;20030;-78
2024/03/30 06:29:30;;;;;;;1.88;1.00;;;13.00;88.10;;;;;;4975362;28;20396;-78
2024/03/30 06:31:56;;;;;;;2.13;1.10;;;13.00;88.10;;;;;;4973707;28;20026;-78
2024/03/30 06:34:21;;;;;;;1.58;0.90;;;13.00;88.10;;;;;;4975245;28;20041;-78
2024/03/30 06:36:47;;;;;;;1.65;0.90;;;13.00;88.10;;;;;;4957768;28;20034;-78
2024/03/30 06:39:12;;;;;;;1.92;1.02;;;13.00;88.10;;;;;;4973628;28;20043;-79
2024/03/30 06:44:22;;;;;;;1.25;0.90;;;13.00;88.10;;;;;;4974417;28;20034;-78
2024/03/30 06:46:48;;;;;;;1.40;0.98;;;13.00;88.10;;;;;;4972968;28;20031;-79
2024/03/30 06:49:13;;;;;;;1.65;1.02;;;13.00;88.00;;;;;;4953974;28;20041;-79
2024/03/30 06:51:39;;;;;;;1.48;0.98;;;13.00;88.00;;;;;;4973512;28;20038;-78
2024/03/30 06:54:05;;;;;;;1.77;0.95;;;13.00;88.00;;;;;;4995848;28;20390;-79
2024/03/30 06:56:30;;;;;;;1.08;0.98;;;13.00;88.00;;;;;;4993270;28;20499;-78
2024/03/30 06:58:56;;;;;;;2.28;1.10;;;13.00;88.00;;;;;;4976957;28;20038;-79
2024/03/30 07:01:24;;;;;;;1.80;1.08;;;13.10;88.00;;;;;;4991964;28;20096;-77
2024/03/30 07:03:49;;;;;;;1.52;1.10;;;13.10;88.00;;;;;;4992606;28;20038;-77
2024/03/30 07:06:15;;;;;;;1.40;1.00;;;13.10;88.00;;;;;;4977641;28;20492;-77
2024/03/30 07:08:41;;;;;;;1.10;0.88;;;13.10;87.90;;;;;;4955066;29;20031;-77
2024/03/30 07:11:06;;;;;;;1.38;0.90;;;13.10;87.80;;;;;;4953254;28;20074;-78
2024/03/30 07:13:32;;;;;;;1.55;0.77;;;13.10;87.70;;;;;;4956130;29;20031;-78
2024/03/30 07:15:58;;;;;;;1.73;1.00;;;13.20;87.60;;;;;;4954811;28;20055;-77
2024/03/30 07:18:24;;;;;;;1.73;1.13;;;13.20;87.60;;;;;;4953319;29;20051;-77
2024/03/30 07:20:50;;;;;;;1.38;1.02;;;13.20;87.60;;;;;;4953614;28;20035;-77
2024/03/30 07:23:16;;;;;;;1.52;1.00;;;13.20;87.50;;;;;;4953610;28;20590;-78
2024/03/30 07:25:43;;;;;;;1.58;1.08;;;13.20;87.50;;;;;;4955579;28;20850;-80
2024/03/30 07:28:08;;;;;;;1.60;0.95;;;13.20;87.30;;;;;;4950755;29;20128;-79
2024/03/30 07:30:40;;;;;;;1.30;1.00;;;13.20;87.30;;;;;;4935414;29;20063;-79
2024/03/30 07:33:07;;;;;;;1.30;1.00;;;13.20;87.30;;;;;;4956037;28;20236;-79
2024/03/30 07:35:33;;;;;;;1.20;0.90;;;13.30;87.30;;;;;;4958654;28;20043;-78
2024/03/30 07:38:03;;;;;;;1.55;0.90;;;13.30;87.20;;;;;;4952367;28;20035;-80
2024/03/30 07:40:29;;;;;;;1.25;0.85;;;13.30;87.80;;;;;;4954129;28;20032;-81
2024/03/30 07:42:55;;;;;;;1.20;0.80;;;13.30;87.20;;;;;;4954764;28;20059;-79
2024/03/30 07:45:20;;;;;;;1.48;0.80;;;13.20;87.20;;;;;;4953570;28;20063;-79
2024/03/30 07:47:46;;;;;;;1.50;0.90;;;13.30;87.30;;;;;;4951577;28;20094;-79
2024/03/30 07:50:12;;;;;;;1.45;1.00;;;13.20;87.30;;;;;;4951433;28;20086;-78
2024/03/30 07:52:41;;;;;;;1.23;1.00;;;13.30;87.30;;;;;;4952694;29;20020;-79
2024/03/30 07:55:06;;;;;;;0.93;0.82;;;13.20;87.30;;;;;;4953400;28;20519;-79
2024/03/30 07:57:32;;;;;;;1.75;1.00;;;13.20;87.40;;;;;;4951370;29;20031;-77
2024/03/30 07:59:58;;;;;;;1.13;0.88;;;13.20;87.40;;;;;;4953060;29;20783;-79
2024/03/30 08:02:24;;;;;;;1.10;0.80;;;13.20;87.30;;;;;;4951751;28;20031;-79
2024/03/30 08:04:50;;;;;;;1.88;1.00;;;13.20;87.30;;;;;;4953743;28;20019;-79
2024/03/30 08:07:16;;;;;;;1.00;0.80;;;13.30;87.30;;;;;;4950177;28;20097;-78
2024/03/30 08:09:41;;;;;;;1.52;0.90;;;13.30;87.30;;;;;;4953050;28;20397;-79
2024/03/30 08:12:07;;;;;;;1.00;0.80;;;13.30;87.30;;;;;;4951574;28;20043;-78
2024/03/30 08:14:32;;;;;;;1.30;0.85;;;13.30;87.20;;;;;;4955454;28;20034;-77
2024/03/30 08:16:58;;;;;;;1.88;1.00;;;13.40;87.10;;;;;;4953672;29;20039;-78
2024/03/30 08:19:24;;;;;;;0.70;0.65;;;13.40;87.10;;;;;;4953372;29;20067;-78
2024/03/30 08:21:49;;;;;;;1.60;0.80;;;13.40;86.90;;;;;;4953628;28;20035;-79
2024/03/30 08:24:15;;;;;;;2.75;0.98;;;13.50;86.90;;;;;;4949344;29;20035;-77
2024/03/30 08:26:40;;;;;;;1.05;0.80;;;13.50;86.70;;;;;;4950771;28;20023;-77
2024/03/30 08:29:07;;;;;;;2.90;1.00;;;13.50;86.70;;;;;;4950241;28;20035;-78
2024/03/30 08:31:32;;;;;;;1.38;0.80;;;13.50;86.70;;;;;;4951315;28;20672;-78
2024/03/30 08:33:58;;;;;;;4.20;0.90;;;13.50;86.70;;;;;;4951139;29;20068;-78
2024/03/30 08:36:24;;;;;;;2.95;1.00;;;13.50;86.80;;;;;;4950043;29;20035;-77
2024/03/30 08:38:49;;;;;;;2.17;0.90;;;13.40;86.80;;;;;;4950958;28;20027;-78
2024/03/30 08:41:15;;;;;;;2.97;0.90;;;13.50;86.90;;;;;;4950334;28;20038;-79
2024/03/30 08:43:40;;;;;;;1.67;0.90;;;13.40;86.90;;;;;;4950834;28;20015;-76
2024/03/30 08:46:06;;;;;;;3.15;0.90;;;13.40;87.00;;;;;;4949371;29;20611;-78
2024/03/30 08:48:36;;;;;;;4.10;1.02;;;13.40;87.00;;;;;;4950679;28;20054;-79
2024/03/30 08:51:02;;;;;;;0.88;0.70;;;13.40;87.00;;;;;;4948757;28;20424;-79
2024/03/30 08:53:28;;;;;;;2.33;0.85;;;13.30;87.00;;;;;;4949253;28;20027;-78
2024/03/30 08:56:00;;;;;;;1.42;0.90;;;13.40;87.20;;;;;;4951120;29;20039;-78
2024/03/30 08:58:27;;;;;;;1.20;0.88;;;13.30;87.10;;;;;;4948964;28;20058;-77
2024/03/30 09:00:53;;;;;;;1.27;0.85;;;13.40;87.20;;;;;;4948622;29;20511;-78
2024/03/30 09:03:19;;;;;;;2.95;0.88;;;13.30;87.80;;;;;;4950343;28;20035;-78
2024/03/30 09:05:45;;;;;;;1.23;0.82;;;13.30;87.20;;;;;;4966066;28;20083;-78
2024/03/30 09:08:13;;;;;;;1.27;0.80;;;13.30;87.30;;;;;;4969375;28;20050;-79
2024/03/30 09:10:39;;;;;;;1.85;0.80;;;13.30;87.80;;;;;;4951437;28;20069;-79
2024/03/30 09:13:05;;;;;;;1.23;0.80;;;13.30;87.30;;;;;;4968940;28;20027;-77
2024/03/30 09:15:31;;;;;;;2.15;0.90;;;13.30;87.30;;;;;;4951969;28;20046;-78
2024/03/30 09:17:57;;;;;;;0.80;0.70;;;13.30;87.30;;;;;;4967696;28;20038;-76
2024/03/30 09:20:23;;;;;;;2.35;0.90;;;13.30;87.30;;;;;;4968826;28;20031;-76
2024/03/30 09:22:48;;;;;;;3.20;1.00;;;13.30;87.30;;;;;;4967321;28;20081;-78
2024/03/30 09:25:14;;;;;;;1.50;1.00;;;13.30;87.40;;;;;;4968252;28;20559;-75
2024/03/30 09:27:41;;;;;;;1.17;0.90;;;13.30;87.40;;;;;;4951006;28;20023;-76
2024/03/30 09:30:08;;;;;;;1.48;0.98;;;13.30;87.40;;;;;;4968358;28;20095;-76
2024/03/30 09:32:41;;;;;;;1.90;0.98;;;13.30;87.40;;;;;;4967138;28;20030;-76
2024/03/30 09:35:08;;;;;;;1.85;1.00;;;13.30;87.40;;;;;;4968392;28;20070;-77
2024/03/30 09:37:34;;;;;;;2.20;0.90;;;13.30;87.40;;;;;;4968214;28;20031;-77
2024/03/30 09:40:00;;;;;;;1.80;0.90;;;13.30;87.40;;;;;;4967883;28;20030;-77
2024/03/30 09:42:35;;;;;;;2.17;0.95;;;13.30;87.40;;;;;;4968621;28;20041;-77
2024/03/30 09:45:01;;;;;;;2.05;0.80;;;13.30;87.40;;;;;;4968263;28;20462;-77
2024/03/30 09:47:29;;;;;;;3.53;1.10;;;13.30;87.40;;;;;;4966717;28;20446;-77
2024/03/30 09:50:02;;;;;;;2.55;0.80;;;13.30;87.40;;;;;;4967797;28;20125;-76
2024/03/30 09:52:29;;;;;;;3.08;1.15;;;13.30;87.40;;;;;;4966671;28;20035;-77
2024/03/30 09:54:58;;;;;;;1.95;0.90;;;13.30;87.40;;;;;;4966721;28;20035;-76
2024/03/30 09:57:25;;;;;;;2.40;0.90;;;13.30;87.40;;;;;;4967726;28;20038;-76
2024/03/30 09:59:52;;;;;;;2.60;0.82;;;13.30;87.30;;;;;;4967382;28;20022;-76
2024/03/30 10:02:18;;;;;;;1.85;0.90;;;13.30;87.30;;;;;;4967455;28;20026;-76
2024/03/30 10:04:44;;;;;;;1.95;0.88;;;13.30;87.30;;;;;;4967436;28;20488;-77
2024/03/30 10:07:14;;;;;;;3.05;0.98;;;13.30;87.20;;;;;;4966591;28;20082;-79
2024/03/30 10:09:40;;;;;;;3.20;0.93;;;13.30;87.10;;;;;;4967285;28;20093;-76
2024/03/30 10:12:32;;;;;;;2.25;0.85;;;13.40;87.10;;;;;;4968152;28;20035;-78
2024/03/30 10:15:04;;;;;;;1.98;0.90;;;13.40;87.10;;;;;;4966605;28;20496;-79
2024/03/30 10:17:30;;;;;;;3.00;0.90;;;13.40;87.00;;;;;;4966972;28;20038;-78
2024/03/30 10:19:58;;;;;;;2.00;0.80;;;13.40;86.90;;;;;;4967677;28;20035;-78
2024/03/30 10:22:24;;;;;;;1.42;0.90;;;13.40;86.90;;;;;;4968521;28;20590;-77
2024/03/30 10:24:51;;;;;;;3.38;0.98;;;13.40;86.90;;;;;;4967327;28;20074;-77
2024/03/30 10:27:17;;;;;;;2.15;0.80;;;13.40;86.80;;;;;;4965202;28;20209;-77
2024/03/30 10:29:46;;;;;;;2.28;0.90;;;13.40;86.90;;;;;;4967962;28;20571;-76
2024/03/30 10:32:11;;;;;;;1.77;0.90;;;13.40;86.90;;;;;;4972796;28;20117;-78
2024/03/30 10:34:37;;;;;;;1.50;0.85;;;13.40;86.90;;;;;;4972738;28;20134;-80
2024/03/30 10:37:02;;;;;;;2.35;0.90;;;13.50;86.90;;;;;;4975536;28;20033;-80
2024/03/30 10:39:29;;;;;;;2.58;0.93;;;13.40;86.90;;;;;;4970827;28;20041;-78
2024/03/30 10:41:55;;;;;;;2.58;1.20;;;13.40;86.90;;;;;;4972556;28;20054;-79
2024/03/30 10:44:28;;;;;;;2.47;0.90;;;13.40;86.90;;;;;;4974150;28;20088;-79
2024/03/30 10:46:55;;;;;;;2.03;0.80;;;13.50;86.90;;;;;;4978711;28;20077;-79
2024/03/30 10:49:23;;;;;;;2.65;0.90;;;13.50;87.00;;;;;;4978065;28;20479;-79
2024/03/30 10:51:50;;;;;;;2.00;0.70;;;13.40;87.00;;;;;;4973244;28;20114;-79
2024/03/30 10:54:20;;;;;;;2.47;0.90;;;13.50;87.00;;;;;;4958165;28;20030;-78
2024/03/30 10:56:49;;;;;;;2.10;0.90;;;13.50;87.10;;;;;;4954993;28;20031;-80
2024/03/30 10:59:17;;;;;;;2.65;1.15;;;13.50;86.90;;;;;;4969631;28;20483;-79
2024/03/30 11:01:49;;;;;;;3.20;1.23;;;13.50;86.90;;;;;;4965773;28;20046;-78
2024/03/30 11:04:20;;;;;;;1.73;0.90;;;13.50;86.80;;;;;;4969478;28;20098;-79
2024/03/30 11:06:47;;;;;;;2.28;0.80;;;13.50;86.80;;;;;;4969927;28;20032;-80
2024/03/30 11:09:16;;;;;;;2.60;0.85;;;13.50;86.70;;;;;;4969116;28;20122;-79
2024/03/30 11:11:44;;;;;;;3.65;0.90;;;13.50;86.70;;;;;;4968217;28;20031;-79
2024/03/30 11:14:10;;;;;;;1.45;0.73;;;13.60;86.70;;;;;;4953618;28;20055;-80
2024/03/30 11:16:43;;;;;;;2.00;0.77;;;13.50;86.70;;;;;;4952978;28;20034;-81
2024/03/30 11:19:19;;;;;;;2.40;0.90;;;13.60;86.80;;;;;;4954846;28;20035;-81
2024/03/30 11:22:13;;;;;;;1.77;0.68;;;13.60;86.80;;;;;;4955150;28;20031;-80
2024/03/30 11:24:52;;;;;;;2.60;0.90;;;13.50;86.70;;;;;;4955467;28;20114;-82
2024/03/30 11:27:21;;;;;;;1.73;0.80;;;13.60;86.80;;;;;;4970282;28;20455;-79
2024/03/30 11:30:12;;;;;;;1.60;0.70;;;13.50;86.70;;;;;;4949593;28;20098;-76
2024/03/30 11:32:45;;;;;;;2.88;0.90;;;13.60;86.80;;;;;;4968366;28;20532;-81
2024/03/30 11:35:19;;;;;;;3.72;1.10;;;13.50;86.80;;;;;;4957205;28;20031;-80
2024/03/30 11:37:50;;;;;;;2.92;1.05;;;13.50;86.80;;;;;;4959071;28;20039;-79
2024/03/30 11:40:31;;;;;;;2.65;0.90;;;13.50;86.80;;;;;;4957123;28;20027;-80
2024/03/30 11:43:22;;;;;;;2.65;0.98;;;13.50;86.80;;;;;;4956904;28;20031;-79
2024/03/30 11:45:49;;;;;;;2.63;0.85;;;13.50;86.80;;;;;;4950200;28;20058;-80
2024/03/30 11:48:15;;;;;;;1.83;0.77;;;13.50;86.90;;;;;;4951364;28;20062;-80
2024/03/30 11:50:41;;;;;;;2.67;0.80;;;13.60;86.80;;;;;;4952280;28;20031;-80
2024/03/30 11:53:15;;;;;;;2.47;0.80;;;13.60;86.80;;;;;;4960192;28;20125;-80
2024/03/30 11:55:44;;;;;;;2.03;0.82;;;13.50;86.60;;;;;;4976656;28;20037;-81
2024/03/30 11:58:23;;;;;;;3.63;1.00;;;13.60;86.70;;;;;;4964662;28;20110;-79
2024/03/30 12:01:00;;;;;;;3.33;1.00;;;13.60;86.70;;;;;;4971901;28;20123;-80
2024/03/30 12:03:28;;;;;;;1.27;0.80;;;13.60;86.70;;;;;;4967850;28;20125;-79
2024/03/30 12:05:56;;;;;;;6.43;1.10;;;13.60;86.70;;;;;;4961000;28;20022;-77
2024/03/30 12:08:28;;;;;;;6.45;1.08;;;13.50;86.70;;;;;;4969522;28;20027;-80
2024/03/30 12:10:58;;;;;;;5.75;1.40;;;13.50;86.70;;;;;;4968213;28;20031;-78
2024/03/30 12:13:26;;;;;;;7.60;1.52;;;13.60;86.70;;;;;;4984921;28;20031;-78
2024/03/30 12:15:53;;;;;;;14.68;2.63;;;13.60;86.80;;;;;;4969348;28;20039;-78
2024/03/30 12:18:19;;;;;;;21.30;3.22;;;13.60;86.30;;;;;;4970216;28;20810;-79
2024/03/30 12:20:47;;;;;;;40.53;4.20;;;13.70;86.20;;;;;;4968882;28;20133;-79
2024/03/30 12:23:14;;;;;;;41.67;4.63;;;13.80;86.80;;;;;;4969613;28;20085;-77
2024/03/30 12:25:42;;;;;;;36.55;5.40;;;14.10;86.70;;;;;;4970252;28;20035;-80
2024/03/30 12:28:07;;;;;;;32.28;4.30;;;14.30;85.70;;;;;;4953850;28;20041;-80
2024/03/30 12:30:40;;;;;;;24.77;4.50;;;14.30;82.90;;;;;;4972288;28;20019;-80
2024/03/30 12:33:06;;;;;;;41.08;5.03;;;14.20;83.30;;;;;;4973027;28;20031;-80
2024/03/30 12:35:32;;;;;;;40.03;5.45;;;14.10;83.90;;;;;;4974049;28;20030;-80
2024/03/30 12:37:59;;;;;;;53.22;6.63;;;14.10;84.40;;;;;;4973315;28;20026;-80
2024/03/30 12:40:32;;;;;;;64.13;7.68;;;14.20;84.30;;;;;;4973793;28;20035;-80
2024/03/30 12:43:04;;;;;;;51.38;6.70;;;14.30;83.80;;;;;;4973793;28;20098;-79
2024/03/30 12:45:30;;;;;;;53.88;6.70;;;14.30;84.10;;;;;;4974015;28;20357;-80
2024/03/30 12:47:56;;;;;;;60.13;7.22;;;14.10;84.70;;;;;;4955733;28;20073;-79